sensor_id;sensor_type;location;lat;lon;timestamp;temperature;humidity
49679;DHT22;35570;48.218;16.326;2023-08-24T00:00:38;27.20;87.90
49679;DHT22;35570;48.218;16.326;2023-08-24T00:03:04;27.10;88.60
49679;DHT22;35570;48.218;16.326;2023-08-24T00:05:33;27.10;87.90
49679;DHT22;35570;48.218;16.326;2023-08-24T00:07:59;27.10;88.70
49679;DHT22;35570;48.218;16.326;2023-08-24T00:10:25;27.10;87.60
49679;DHT22;35570;48.218;16.326;2023-08-24T00:12:51;27.00;88.10
49679;DHT22;35570;48.218;16.326;2023-08-24T00:15:17;26.90;89.20
49679;DHT22;35570;48.218;16.326;2023-08-24T00:17:42;27.00;88.80
49679;DHT22;35570;48.218;16.326;2023-08-24T00:20:08;26.90;88.30
49679;DHT22;35570;48.218;16.326;2023-08-24T00:22:37;26.80;88.00
49679;DHT22;35570;48.218;16.326;2023-08-24T00:25:02;26.90;89.90
49679;DHT22;35570;48.218;16.326;2023-08-24T00:27:28;26.90;90.30
49679;DHT22;35570;48.218;16.326;2023-08-24T00:29:54;26.90;90.20
49679;DHT22;35570;48.218;16.326;2023-08-24T00:32:21;26.90;90.10
49679;DHT22;35570;48.218;16.326;2023-08-24T00:34:47;26.80;90.20
49679;DHT22;35570;48.218;16.326;2023-08-24T00:37:13;26.80;90.10
49679;DHT22;35570;48.218;16.326;2023-08-24T00:39:38;26.70;90.00
49679;DHT22;35570;48.218;16.326;2023-08-24T00:42:04;26.80;89.70
49679;DHT22;35570;48.218;16.326;2023-08-24T00:44:31;26.80;90.40
49679;DHT22;35570;48.218;16.326;2023-08-24T00:46:58;26.80;90.40
49679;DHT22;35570;48.218;16.326;2023-08-24T00:49:25;26.80;90.00
49679;DHT22;35570;48.218;16.326;2023-08-24T00:51:51;26.70;90.20
49679;DHT22;35570;48.218;16.326;2023-08-24T00:54:16;26.70;90.80
49679;DHT22;35570;48.218;16.326;2023-08-24T00:56:43;26.60;90.80
49679;DHT22;35570;48.218;16.326;2023-08-24T00:59:09;26.70;89.60
49679;DHT22;35570;48.218;16.326;2023-08-24T01:01:35;26.70;90.90
49679;DHT22;35570;48.218;16.326;2023-08-24T01:04:01;26.60;90.60
49679;DHT22;35570;48.218;16.326;2023-08-24T01:06:28;26.70;90.60
49679;DHT22;35570;48.218;16.326;2023-08-24T01:08:54;26.60;90.10
49679;DHT22;35570;48.218;16.326;2023-08-24T01:16:43;26.60;90.40
49679;DHT22;35570;48.218;16.326;2023-08-24T01:20:01;26.60;91.40
49679;DHT22;35570;48.218;16.326;2023-08-24T01:25:11;26.60;91.40
49679;DHT22;35570;48.218;16.326;2023-08-24T01:27:38;26.60;91.80
49679;DHT22;35570;48.218;16.326;2023-08-24T01:30:05;26.60;91.10
49679;DHT22;35570;48.218;16.326;2023-08-24T01:32:31;26.60;91.30
49679;DHT22;35570;48.218;16.326;2023-08-24T01:34:58;26.50;91.60
49679;DHT22;35570;48.218;16.326;2023-08-24T01:37:24;26.50;91.80
49679;DHT22;35570;48.218;16.326;2023-08-24T01:42:22;26.50;92.00
49679;DHT22;35570;48.218;16.326;2023-08-24T01:44:55;26.50;91.70
49679;DHT22;35570;48.218;16.326;2023-08-24T01:47:21;26.50;91.60
49679;DHT22;35570;48.218;16.326;2023-08-24T01:49:48;26.50;91.50
49679;DHT22;35570;48.218;16.326;2023-08-24T01:52:14;26.50;91.10
49679;DHT22;35570;48.218;16.326;2023-08-24T01:54:40;26.50;92.00
49679;DHT22;35570;48.218;16.326;2023-08-24T01:57:06;26.50;91.80
49679;DHT22;35570;48.218;16.326;2023-08-24T01:59:32;26.50;91.10
49679;DHT22;35570;48.218;16.326;2023-08-24T02:01:57;26.50;91.70
49679;DHT22;35570;48.218;16.326;2023-08-24T02:04:23;26.40;92.20
49679;DHT22;35570;48.218;16.326;2023-08-24T02:06:48;26.40;91.70
49679;DHT22;35570;48.218;16.326;2023-08-24T02:09:14;26.40;91.20
49679;DHT22;35570;48.218;16.326;2023-08-24T02:11:40;26.40;91.40
49679;DHT22;35570;48.218;16.326;2023-08-24T02:14:05;26.40;91.60
49679;DHT22;35570;48.218;16.326;2023-08-24T02:16:31;26.40;91.30
49679;DHT22;35570;48.218;16.326;2023-08-24T02:18:56;26.30;91.60
49679;DHT22;35570;48.218;16.326;2023-08-24T02:21:22;26.30;91.50
49679;DHT22;35570;48.218;16.326;2023-08-24T02:23:47;26.30;91.90
49679;DHT22;35570;48.218;16.326;2023-08-24T02:26:13;26.30;91.20
49679;DHT22;35570;48.218;16.326;2023-08-24T02:28:39;26.20;92.10
49679;DHT22;35570;48.218;16.326;2023-08-24T02:31:05;26.20;91.80
49679;DHT22;35570;48.218;16.326;2023-08-24T02:33:31;26.10;92.10
49679;DHT22;35570;48.218;16.326;2023-08-24T02:35:57;26.10;92.70
49679;DHT22;35570;48.218;16.326;2023-08-24T02:38:23;26.10;92.10
49679;DHT22;35570;48.218;16.326;2023-08-24T02:40:49;26.10;92.30
49679;DHT22;35570;48.218;16.326;2023-08-24T02:43:15;26.10;92.80
49679;DHT22;35570;48.218;16.326;2023-08-24T02:45:40;26.00;92.60
49679;DHT22;35570;48.218;16.326;2023-08-24T02:48:06;26.10;92.60
49679;DHT22;35570;48.218;16.326;2023-08-24T02:50:32;26.00;92.10
49679;DHT22;35570;48.218;16.326;2023-08-24T02:52:57;26.00;92.30
49679;DHT22;35570;48.218;16.326;2023-08-24T02:55:24;26.00;92.30
49679;DHT22;35570;48.218;16.326;2023-08-24T02:57:49;26.00;92.80
49679;DHT22;35570;48.218;16.326;2023-08-24T03:00:16;25.90;92.90
49679;DHT22;35570;48.218;16.326;2023-08-24T03:02:42;26.00;92.90
49679;DHT22;35570;48.218;16.326;2023-08-24T03:05:08;25.90;92.30
49679;DHT22;35570;48.218;16.326;2023-08-24T03:07:34;25.90;92.90
49679;DHT22;35570;48.218;16.326;2023-08-24T03:09:59;25.90;92.90
49679;DHT22;35570;48.218;16.326;2023-08-24T03:12:25;25.90;93.00
49679;DHT22;35570;48.218;16.326;2023-08-24T03:14:53;25.90;93.20
49679;DHT22;35570;48.218;16.326;2023-08-24T03:17:20;25.90;93.00
49679;DHT22;35570;48.218;16.326;2023-08-24T03:19:46;25.90;93.30
49679;DHT22;35570;48.218;16.326;2023-08-24T03:22:12;26.00;93.10
49679;DHT22;35570;48.218;16.326;2023-08-24T03:24:37;25.90;93.20
49679;DHT22;35570;48.218;16.326;2023-08-24T03:27:03;25.90;93.20
49679;DHT22;35570;48.218;16.326;2023-08-24T03:29:28;25.90;93.10
49679;DHT22;35570;48.218;16.326;2023-08-24T03:31:54;25.90;93.40
49679;DHT22;35570;48.218;16.326;2023-08-24T03:34:20;25.80;93.50
49679;DHT22;35570;48.218;16.326;2023-08-24T03:36:46;25.80;93.80
49679;DHT22;35570;48.218;16.326;2023-08-24T03:39:13;25.80;93.30
49679;DHT22;35570;48.218;16.326;2023-08-24T03:41:40;25.70;93.80
49679;DHT22;35570;48.218;16.326;2023-08-24T03:44:06;25.70;93.60
49679;DHT22;35570;48.218;16.326;2023-08-24T03:46:32;25.80;96.20
49679;DHT22;35570;48.218;16.326;2023-08-24T03:48:57;25.70;94.20
49679;DHT22;35570;48.218;16.326;2023-08-24T03:51:23;25.70;93.40
49679;DHT22;35570;48.218;16.326;2023-08-24T03:53:48;25.60;93.90
49679;DHT22;35570;48.218;16.326;2023-08-24T03:56:14;25.60;93.70
49679;DHT22;35570;48.218;16.326;2023-08-24T03:58:40;25.60;93.70
49679;DHT22;35570;48.218;16.326;2023-08-24T04:01:10;25.60;94.20
49679;DHT22;35570;48.218;16.326;2023-08-24T04:03:36;25.60;94.10
49679;DHT22;35570;48.218;16.326;2023-08-24T04:06:01;25.60;94.10
49679;DHT22;35570;48.218;16.326;2023-08-24T04:08:27;25.60;93.90
49679;DHT22;35570;48.218;16.326;2023-08-24T04:10:53;25.60;93.80
49679;DHT22;35570;48.218;16.326;2023-08-24T04:13:18;25.60;94.40
49679;DHT22;35570;48.218;16.326;2023-08-24T04:15:44;25.60;94.00
49679;DHT22;35570;48.218;16.326;2023-08-24T04:18:10;25.60;93.70
49679;DHT22;35570;48.218;16.326;2023-08-24T04:20:36;25.60;94.40
49679;DHT22;35570;48.218;16.326;2023-08-24T04:23:02;25.60;94.50
49679;DHT22;35570;48.218;16.326;2023-08-24T04:25:27;25.60;94.60
49679;DHT22;35570;48.218;16.326;2023-08-24T04:27:54;25.60;94.20
49679;DHT22;35570;48.218;16.326;2023-08-24T04:30:20;25.50;94.00
49679;DHT22;35570;48.218;16.326;2023-08-24T04:32:47;25.50;94.20
49679;DHT22;35570;48.218;16.326;2023-08-24T04:35:15;25.40;99.80
49679;DHT22;35570;48.218;16.326;2023-08-24T04:37:40;25.40;99.90
49679;DHT22;35570;48.218;16.326;2023-08-24T04:40:06;25.40;96.70
49679;DHT22;35570;48.218;16.326;2023-08-24T04:42:36;25.40;95.40
49679;DHT22;35570;48.218;16.326;2023-08-24T04:45:02;25.40;94.40
49679;DHT22;35570;48.218;16.326;2023-08-24T04:47:28;25.40;94.40
49679;DHT22;35570;48.218;16.326;2023-08-24T04:49:53;25.40;94.60
49679;DHT22;35570;48.218;16.326;2023-08-24T04:52:19;25.40;94.70
49679;DHT22;35570;48.218;16.326;2023-08-24T04:54:44;25.40;94.60
49679;DHT22;35570;48.218;16.326;2023-08-24T04:57:10;25.50;94.80
49679;DHT22;35570;48.218;16.326;2023-08-24T04:59:35;25.40;94.70
49679;DHT22;35570;48.218;16.326;2023-08-24T05:02:01;25.50;94.20
49679;DHT22;35570;48.218;16.326;2023-08-24T05:04:27;25.40;94.90
49679;DHT22;35570;48.218;16.326;2023-08-24T05:06:52;25.40;94.20
49679;DHT22;35570;48.218;16.326;2023-08-24T05:09:18;25.40;94.50
49679;DHT22;35570;48.218;16.326;2023-08-24T05:11:43;25.40;95.30
49679;DHT22;35570;48.218;16.326;2023-08-24T05:14:09;25.50;95.40
49679;DHT22;35570;48.218;16.326;2023-08-24T05:16:35;25.50;94.60
49679;DHT22;35570;48.218;16.326;2023-08-24T05:19:00;25.60;94.60
49679;DHT22;35570;48.218;16.326;2023-08-24T05:21:28;25.60;94.70
49679;DHT22;35570;48.218;16.326;2023-08-24T05:23:54;25.60;94.60
49679;DHT22;35570;48.218;16.326;2023-08-24T05:26:19;25.70;94.80
49679;DHT22;35570;48.218;16.326;2023-08-24T05:28:48;25.70;94.70
49679;DHT22;35570;48.218;16.326;2023-08-24T05:31:13;25.70;94.80
49679;DHT22;35570;48.218;16.326;2023-08-24T05:33:39;25.70;95.10
49679;DHT22;35570;48.218;16.326;2023-08-24T05:36:04;25.70;95.20
49679;DHT22;35570;48.218;16.326;2023-08-24T05:38:30;25.80;94.90
49679;DHT22;35570;48.218;16.326;2023-08-24T05:40:56;25.80;94.30
49679;DHT22;35570;48.218;16.326;2023-08-24T05:43:21;25.70;94.30
49679;DHT22;35570;48.218;16.326;2023-08-24T05:45:48;25.80;94.60
49679;DHT22;35570;48.218;16.326;2023-08-24T05:48:14;25.80;94.20
49679;DHT22;35570;48.218;16.326;2023-08-24T05:50:46;25.90;94.50
49679;DHT22;35570;48.218;16.326;2023-08-24T05:53:12;26.00;94.20
49679;DHT22;35570;48.218;16.326;2023-08-24T05:55:38;26.00;94.50
49679;DHT22;35570;48.218;16.326;2023-08-24T06:00:48;26.00;94.50
49679;DHT22;35570;48.218;16.326;2023-08-24T06:03:13;26.00;94.60
49679;DHT22;35570;48.218;16.326;2023-08-24T06:05:39;26.00;93.50
49679;DHT22;35570;48.218;16.326;2023-08-24T06:08:05;26.10;93.20
49679;DHT22;35570;48.218;16.326;2023-08-24T06:10:31;26.10;93.60
49679;DHT22;35570;48.218;16.326;2023-08-24T06:12:57;26.20;93.00
49679;DHT22;35570;48.218;16.326;2023-08-24T06:15:23;26.20;92.40
49679;DHT22;35570;48.218;16.326;2023-08-24T06:17:51;26.30;91.90
49679;DHT22;35570;48.218;16.326;2023-08-24T06:20:17;26.30;91.80
49679;DHT22;35570;48.218;16.326;2023-08-24T06:22:43;26.30;92.10
49679;DHT22;35570;48.218;16.326;2023-08-24T06:25:08;26.40;92.00
49679;DHT22;35570;48.218;16.326;2023-08-24T06:27:34;26.40;91.60
49679;DHT22;35570;48.218;16.326;2023-08-24T06:30:00;26.50;92.20
49679;DHT22;35570;48.218;16.326;2023-08-24T06:32:25;26.60;91.60
49679;DHT22;35570;48.218;16.326;2023-08-24T06:34:51;26.70;90.90
49679;DHT22;35570;48.218;16.326;2023-08-24T06:37:17;26.70;91.20
49679;DHT22;35570;48.218;16.326;2023-08-24T06:39:42;26.80;90.90
49679;DHT22;35570;48.218;16.326;2023-08-24T06:42:08;26.80;91.70
49679;DHT22;35570;48.218;16.326;2023-08-24T06:44:34;26.80;91.60
49679;DHT22;35570;48.218;16.326;2023-08-24T06:46:59;26.80;91.30
49679;DHT22;35570;48.218;16.326;2023-08-24T06:49:25;26.90;91.30
49679;DHT22;35570;48.218;16.326;2023-08-24T06:51:51;27.00;91.10
49679;DHT22;35570;48.218;16.326;2023-08-24T06:54:17;27.10;90.40
49679;DHT22;35570;48.218;16.326;2023-08-24T06:56:42;27.10;90.80
49679;DHT22;35570;48.218;16.326;2023-08-24T06:59:08;27.30;90.00
49679;DHT22;35570;48.218;16.326;2023-08-24T07:01:35;27.30;90.60
49679;DHT22;35570;48.218;16.326;2023-08-24T07:06:26;27.30;90.50
49679;DHT22;35570;48.218;16.326;2023-08-24T07:08:52;27.40;90.00
49679;DHT22;35570;48.218;16.326;2023-08-24T07:11:18;27.50;90.30
49679;DHT22;35570;48.218;16.326;2023-08-24T07:13:43;27.50;90.00
49679;DHT22;35570;48.218;16.326;2023-08-24T07:16:10;27.60;89.20
49679;DHT22;35570;48.218;16.326;2023-08-24T07:18:35;27.70;88.10
49679;DHT22;35570;48.218;16.326;2023-08-24T07:21:01;27.80;87.40
49679;DHT22;35570;48.218;16.326;2023-08-24T07:23:27;27.80;86.40
49679;DHT22;35570;48.218;16.326;2023-08-24T07:25:52;27.80;86.90
49679;DHT22;35570;48.218;16.326;2023-08-24T07:28:18;27.90;85.70
49679;DHT22;35570;48.218;16.326;2023-08-24T07:30:43;28.00;85.30
49679;DHT22;35570;48.218;16.326;2023-08-24T07:33:09;28.00;83.60
49679;DHT22;35570;48.218;16.326;2023-08-24T07:35:35;28.10;85.30
49679;DHT22;35570;48.218;16.326;2023-08-24T07:38:00;28.20;85.00
49679;DHT22;35570;48.218;16.326;2023-08-24T07:40:26;28.30;84.10
49679;DHT22;35570;48.218;16.326;2023-08-24T07:42:53;28.30;84.90
49679;DHT22;35570;48.218;16.326;2023-08-24T07:45:20;28.40;84.90
49679;DHT22;35570;48.218;16.326;2023-08-24T07:47:46;28.60;84.70
49679;DHT22;35570;48.218;16.326;2023-08-24T07:50:12;28.70;85.30
49679;DHT22;35570;48.218;16.326;2023-08-24T07:52:38;28.80;83.30
49679;DHT22;35570;48.218;16.326;2023-08-24T07:55:05;28.80;83.70
49679;DHT22;35570;48.218;16.326;2023-08-24T07:57:36;28.90;82.60
49679;DHT22;35570;48.218;16.326;2023-08-24T08:00:05;29.10;83.50
49679;DHT22;35570;48.218;16.326;2023-08-24T08:02:31;29.30;84.00
49679;DHT22;35570;48.218;16.326;2023-08-24T08:04:59;29.40;83.60
49679;DHT22;35570;48.218;16.326;2023-08-24T08:07:28;29.50;82.90
49679;DHT22;35570;48.218;16.326;2023-08-24T08:09:54;29.60;81.90
49679;DHT22;35570;48.218;16.326;2023-08-24T08:12:19;29.70;79.20
49679;DHT22;35570;48.218;16.326;2023-08-24T08:14:45;29.70;78.40
49679;DHT22;35570;48.218;16.326;2023-08-24T08:17:11;29.80;78.80
49679;DHT22;35570;48.218;16.326;2023-08-24T08:19:36;29.80;77.60
49679;DHT22;35570;48.218;16.326;2023-08-24T08:22:04;29.90;78.60
49679;DHT22;35570;48.218;16.326;2023-08-24T08:24:29;30.00;78.30
49679;DHT22;35570;48.218;16.326;2023-08-24T08:26:55;30.10;79.60
49679;DHT22;35570;48.218;16.326;2023-08-24T08:29:21;30.20;76.30
49679;DHT22;35570;48.218;16.326;2023-08-24T08:31:46;30.30;76.00
49679;DHT22;35570;48.218;16.326;2023-08-24T08:34:12;30.40;75.90
49679;DHT22;35570;48.218;16.326;2023-08-24T08:36:38;30.40;75.00
49679;DHT22;35570;48.218;16.326;2023-08-24T08:39:03;30.50;75.00
49679;DHT22;35570;48.218;16.326;2023-08-24T08:41:33;30.50;75.50
49679;DHT22;35570;48.218;16.326;2023-08-24T08:44:05;30.70;74.20
49679;DHT22;35570;48.218;16.326;2023-08-24T08:46:32;30.70;71.00
49679;DHT22;35570;48.218;16.326;2023-08-24T08:49:00;30.80;73.40
49679;DHT22;35570;48.218;16.326;2023-08-24T08:51:27;30.90;73.80
49679;DHT22;35570;48.218;16.326;2023-08-24T08:53:52;31.00;73.10
49679;DHT22;35570;48.218;16.326;2023-08-24T08:56:19;31.10;74.00
49679;DHT22;35570;48.218;16.326;2023-08-24T08:58:45;31.20;73.20
49679;DHT22;35570;48.218;16.326;2023-08-24T09:01:12;31.40;73.70
49679;DHT22;35570;48.218;16.326;2023-08-24T09:03:39;31.50;73.60
49679;DHT22;35570;48.218;16.326;2023-08-24T09:06:05;31.70;72.70
49679;DHT22;35570;48.218;16.326;2023-08-24T09:08:31;31.80;71.60
49679;DHT22;35570;48.218;16.326;2023-08-24T09:10:59;32.00;72.20
49679;DHT22;35570;48.218;16.326;2023-08-24T09:13:25;32.00;67.60
49679;DHT22;35570;48.218;16.326;2023-08-24T09:15:52;32.00;68.60
49679;DHT22;35570;48.218;16.326;2023-08-24T09:18:19;32.00;69.60
49679;DHT22;35570;48.218;16.326;2023-08-24T09:20:47;32.10;68.30
49679;DHT22;35570;48.218;16.326;2023-08-24T09:25:48;32.30;73.40
49679;DHT22;35570;48.218;16.326;2023-08-24T09:28:22;32.40;67.50
49679;DHT22;35570;48.218;16.326;2023-08-24T09:30:55;32.50;71.70
49679;DHT22;35570;48.218;16.326;2023-08-24T09:33:20;32.60;71.10
49679;DHT22;35570;48.218;16.326;2023-08-24T09:35:54;32.60;65.40
49679;DHT22;35570;48.218;16.326;2023-08-24T09:38:27;32.60;69.40
49679;DHT22;35570;48.218;16.326;2023-08-24T09:40:55;32.70;70.90
49679;DHT22;35570;48.218;16.326;2023-08-24T09:43:21;32.80;68.30
49679;DHT22;35570;48.218;16.326;2023-08-24T09:48:14;32.90;64.30
49679;DHT22;35570;48.218;16.326;2023-08-24T09:50:41;33.00;65.60
49679;DHT22;35570;48.218;16.326;2023-08-24T09:53:08;33.20;63.70
49679;DHT22;35570;48.218;16.326;2023-08-24T09:55:39;33.10;62.40
49679;DHT22;35570;48.218;16.326;2023-08-24T09:58:09;33.20;66.80
49679;DHT22;35570;48.218;16.326;2023-08-24T10:00:35;33.30;66.20
49679;DHT22;35570;48.218;16.326;2023-08-24T10:03:03;33.50;65.40
49679;DHT22;35570;48.218;16.326;2023-08-24T10:05:31;33.60;64.90
49679;DHT22;35570;48.218;16.326;2023-08-24T10:07:56;33.60;61.40
49679;DHT22;35570;48.218;16.326;2023-08-24T10:10:27;33.60;63.80
49679;DHT22;35570;48.218;16.326;2023-08-24T10:13:06;33.70;64.80
49679;DHT22;35570;48.218;16.326;2023-08-24T10:15:36;33.90;63.00
49679;DHT22;35570;48.218;16.326;2023-08-24T10:18:03;34.10;62.90
49679;DHT22;35570;48.218;16.326;2023-08-24T10:20:29;34.30;60.10
49679;DHT22;35570;48.218;16.326;2023-08-24T10:22:57;34.50;62.80
49679;DHT22;35570;48.218;16.326;2023-08-24T10:25:24;34.60;59.20
49679;DHT22;35570;48.218;16.326;2023-08-24T10:27:50;34.50;59.90
49679;DHT22;35570;48.218;16.326;2023-08-24T10:30:17;34.50;57.20
49679;DHT22;35570;48.218;16.326;2023-08-24T10:32:45;34.50;58.90
49679;DHT22;35570;48.218;16.326;2023-08-24T10:35:13;34.60;59.50
49679;DHT22;35570;48.218;16.326;2023-08-24T10:37:41;34.70;59.00
49679;DHT22;35570;48.218;16.326;2023-08-24T10:40:10;34.80;59.60
49679;DHT22;35570;48.218;16.326;2023-08-24T10:42:46;34.90;57.70
49679;DHT22;35570;48.218;16.326;2023-08-24T10:45:15;34.70;56.80
49679;DHT22;35570;48.218;16.326;2023-08-24T10:47:45;34.70;57.30
49679;DHT22;35570;48.218;16.326;2023-08-24T10:50:14;34.80;57.90
49679;DHT22;35570;48.218;16.326;2023-08-24T10:52:43;34.90;55.30
49679;DHT22;35570;48.218;16.326;2023-08-24T10:55:24;34.80;55.60
49679;DHT22;35570;48.218;16.326;2023-08-24T10:57:58;34.90;56.50
49679;DHT22;35570;48.218;16.326;2023-08-24T11:00:29;35.00;57.80
49679;DHT22;35570;48.218;16.326;2023-08-24T11:02:55;35.10;55.60
49679;DHT22;35570;48.218;16.326;2023-08-24T11:05:27;35.20;56.40
49679;DHT22;35570;48.218;16.326;2023-08-24T11:08:05;35.10;54.20
49679;DHT22;35570;48.218;16.326;2023-08-24T11:10:45;35.10;55.50
49679;DHT22;35570;48.218;16.326;2023-08-24T11:13:17;35.20;57.30
49679;DHT22;35570;48.218;16.326;2023-08-24T11:15:46;35.30;54.40
49679;DHT22;35570;48.218;16.326;2023-08-24T11:20:42;35.20;54.70
49679;DHT22;35570;48.218;16.326;2023-08-24T11:23:08;35.20;54.20
49679;DHT22;35570;48.218;16.326;2023-08-24T11:25:37;35.00;53.80
49679;DHT22;35570;48.218;16.326;2023-08-24T11:28:04;35.00;55.70
49679;DHT22;35570;48.218;16.326;2023-08-24T11:30:31;35.20;57.10
49679;DHT22;35570;48.218;16.326;2023-08-24T11:32:57;35.40;56.30
49679;DHT22;35570;48.218;16.326;2023-08-24T11:35:22;35.40;54.90
49679;DHT22;35570;48.218;16.326;2023-08-24T11:37:55;35.60;55.20
49679;DHT22;35570;48.218;16.326;2023-08-24T11:40:22;35.90;55.80
49679;DHT22;35570;48.218;16.326;2023-08-24T11:42:57;36.00;53.20
49679;DHT22;35570;48.218;16.326;2023-08-24T11:45:23;36.10;51.90
49679;DHT22;35570;48.218;16.326;2023-08-24T11:47:50;36.00;53.50
49679;DHT22;35570;48.218;16.326;2023-08-24T11:50:19;36.20;55.30
49679;DHT22;35570;48.218;16.326;2023-08-24T11:52:44;36.40;54.60
49679;DHT22;35570;48.218;16.326;2023-08-24T11:55:11;36.70;52.40
49679;DHT22;35570;48.218;16.326;2023-08-24T11:57:37;36.80;53.10
49679;DHT22;35570;48.218;16.326;2023-08-24T12:00:04;37.00;49.70
49679;DHT22;35570;48.218;16.326;2023-08-24T12:02:30;36.80;50.30
49679;DHT22;35570;48.218;16.326;2023-08-24T12:04:57;36.80;50.00
49679;DHT22;35570;48.218;16.326;2023-08-24T12:07:23;36.70;49.90
49679;DHT22;35570;48.218;16.326;2023-08-24T12:09:49;36.50;51.20
49679;DHT22;35570;48.218;16.326;2023-08-24T12:12:18;36.40;50.80
49679;DHT22;35570;48.218;16.326;2023-08-24T12:14:49;36.50;50.40
49679;DHT22;35570;48.218;16.326;2023-08-24T12:17:16;36.60;53.70
49679;DHT22;35570;48.218;16.326;2023-08-24T12:19:42;36.80;53.40
49679;DHT22;35570;48.218;16.326;2023-08-24T12:22:15;36.90;52.50
49679;DHT22;35570;48.218;16.326;2023-08-24T12:24:48;37.00;51.70
49679;DHT22;35570;48.218;16.326;2023-08-24T12:27:21;37.00;51.10
49679;DHT22;35570;48.218;16.326;2023-08-24T12:29:47;36.90;50.50
49679;DHT22;35570;48.218;16.326;2023-08-24T12:32:13;36.70;51.30
49679;DHT22;35570;48.218;16.326;2023-08-24T12:34:40;36.60;50.60
49679;DHT22;35570;48.218;16.326;2023-08-24T12:37:06;36.40;51.80
49679;DHT22;35570;48.218;16.326;2023-08-24T12:39:39;36.20;50.90
49679;DHT22;35570;48.218;16.326;2023-08-24T12:42:05;36.10;52.10
49679;DHT22;35570;48.218;16.326;2023-08-24T12:44:32;36.20;51.20
49679;DHT22;35570;48.218;16.326;2023-08-24T12:46:58;36.30;50.60
49679;DHT22;35570;48.218;16.326;2023-08-24T12:49:25;36.50;52.70
49679;DHT22;35570;48.218;16.326;2023-08-24T12:51:50;36.50;51.60
49679;DHT22;35570;48.218;16.326;2023-08-24T12:54:16;36.60;52.90
49679;DHT22;35570;48.218;16.326;2023-08-24T12:56:42;36.70;50.40
49679;DHT22;35570;48.218;16.326;2023-08-24T12:59:08;36.70;50.10
49679;DHT22;35570;48.218;16.326;2023-08-24T13:01:34;36.80;50.90
49679;DHT22;35570;48.218;16.326;2023-08-24T13:03:59;36.70;50.60
49679;DHT22;35570;48.218;16.326;2023-08-24T13:06:25;36.70;50.90
49679;DHT22;35570;48.218;16.326;2023-08-24T13:08:54;36.80;50.40
49679;DHT22;35570;48.218;16.326;2023-08-24T13:11:21;36.80;49.40
49679;DHT22;35570;48.218;16.326;2023-08-24T13:13:47;36.80;50.40
49679;DHT22;35570;48.218;16.326;2023-08-24T13:16:13;36.80;50.00
49679;DHT22;35570;48.218;16.326;2023-08-24T13:18:38;37.00;52.50
49679;DHT22;35570;48.218;16.326;2023-08-24T13:21:04;37.10;50.40
49679;DHT22;35570;48.218;16.326;2023-08-24T13:23:29;37.20;50.10
49679;DHT22;35570;48.218;16.326;2023-08-24T13:25:57;37.20;49.30
49679;DHT22;35570;48.218;16.326;2023-08-24T13:28:23;37.10;48.50
49679;DHT22;35570;48.218;16.326;2023-08-24T13:30:49;37.10;50.00
49679;DHT22;35570;48.218;16.326;2023-08-24T13:33:14;36.90;49.60
49679;DHT22;35570;48.218;16.326;2023-08-24T13:35:40;36.90;50.10
49679;DHT22;35570;48.218;16.326;2023-08-24T13:38:06;36.90;49.10
49679;DHT22;35570;48.218;16.326;2023-08-24T13:40:32;36.90;51.50
49679;DHT22;35570;48.218;16.326;2023-08-24T13:42:57;36.80;50.00
49679;DHT22;35570;48.218;16.326;2023-08-24T13:45:23;36.80;51.50
49679;DHT22;35570;48.218;16.326;2023-08-24T13:47:49;36.90;50.10
49679;DHT22;35570;48.218;16.326;2023-08-24T13:50:14;36.80;51.10
49679;DHT22;35570;48.218;16.326;2023-08-24T13:52:40;36.90;51.00
49679;DHT22;35570;48.218;16.326;2023-08-24T13:55:06;37.00;50.80
49679;DHT22;35570;48.218;16.326;2023-08-24T13:57:32;37.00;50.80
49679;DHT22;35570;48.218;16.326;2023-08-24T13:59:57;37.00;49.60
49679;DHT22;35570;48.218;16.326;2023-08-24T14:02:23;36.90;48.40
49679;DHT22;35570;48.218;16.326;2023-08-24T14:04:48;36.70;49.70
49679;DHT22;35570;48.218;16.326;2023-08-24T14:07:14;36.60;49.80
49679;DHT22;35570;48.218;16.326;2023-08-24T14:09:40;36.50;50.30
49679;DHT22;35570;48.218;16.326;2023-08-24T14:12:05;36.40;51.10
49679;DHT22;35570;48.218;16.326;2023-08-24T14:14:31;36.40;52.30
49679;DHT22;35570;48.218;16.326;2023-08-24T14:16:57;36.40;50.60
49679;DHT22;35570;48.218;16.326;2023-08-24T14:19:23;36.20;50.20
49679;DHT22;35570;48.218;16.326;2023-08-24T14:21:49;36.00;50.50
49679;DHT22;35570;48.218;16.326;2023-08-24T14:24:15;35.90;51.10
49679;DHT22;35570;48.218;16.326;2023-08-24T14:26:41;35.90;50.80
49679;DHT22;35570;48.218;16.326;2023-08-24T14:29:11;35.80;51.20
49679;DHT22;35570;48.218;16.326;2023-08-24T14:31:37;35.80;50.20
49679;DHT22;35570;48.218;16.326;2023-08-24T14:34:02;35.70;49.50
49679;DHT22;35570;48.218;16.326;2023-08-24T14:36:28;35.50;50.50
49679;DHT22;35570;48.218;16.326;2023-08-24T14:38:54;35.30;50.80
49679;DHT22;35570;48.218;16.326;2023-08-24T14:41:20;35.20;51.20
49679;DHT22;35570;48.218;16.326;2023-08-24T14:43:46;35.20;53.10
49679;DHT22;35570;48.218;16.326;2023-08-24T14:46:13;35.20;52.80
49679;DHT22;35570;48.218;16.326;2023-08-24T14:48:38;35.00;52.20
49679;DHT22;35570;48.218;16.326;2023-08-24T14:51:05;34.90;53.70
49679;DHT22;35570;48.218;16.326;2023-08-24T14:53:31;34.80;51.30
49679;DHT22;35570;48.218;16.326;2023-08-24T14:55:57;34.70;52.70
49679;DHT22;35570;48.218;16.326;2023-08-24T14:58:25;34.60;53.40
49679;DHT22;35570;48.218;16.326;2023-08-24T15:00:52;34.50;53.80
49679;DHT22;35570;48.218;16.326;2023-08-24T15:03:18;34.60;54.40
49679;DHT22;35570;48.218;16.326;2023-08-24T15:05:46;34.60;54.70
49679;DHT22;35570;48.218;16.326;2023-08-24T15:08:13;34.70;52.70
49679;DHT22;35570;48.218;16.326;2023-08-24T15:10:39;34.70;52.40
49679;DHT22;35570;48.218;16.326;2023-08-24T15:13:05;34.70;52.80
49679;DHT22;35570;48.218;16.326;2023-08-24T15:15:40;34.70;54.00
49679;DHT22;35570;48.218;16.326;2023-08-24T15:18:06;34.70;54.00
49679;DHT22;35570;48.218;16.326;2023-08-24T15:20:32;34.80;54.10
49679;DHT22;35570;48.218;16.326;2023-08-24T15:22:59;34.80;54.10
49679;DHT22;35570;48.218;16.326;2023-08-24T15:25:25;34.80;53.80
49679;DHT22;35570;48.218;16.326;2023-08-24T15:27:51;34.90;54.20
49679;DHT22;35570;48.218;16.326;2023-08-24T15:30:16;35.10;54.90
49679;DHT22;35570;48.218;16.326;2023-08-24T15:32:42;35.40;53.40
49679;DHT22;35570;48.218;16.326;2023-08-24T15:35:08;35.70;53.60